Time;durP1;ratioP1;P1;durP2;ratioP2;P2;SDS_P1;SDS_P2;PMS_P1;PMS_P2;Temp;Humidity;BMP_temperature;BMP_pressure;BME280_temperature;BME280_humidity;BME280_pressure;Samples;Min_cycle;Max_cycle;Signal;HPM_P1;HPM_P2
2024/02/01 00:00:22;;;;;;;;;;;;;;;25.98;19.00;99005.22;5106083;28;19920;-79
2024/02/01 00:02:48;;;;;;;;;;;;;;;25.63;19.20;99002.09;5105469;28;19916;-79
2024/02/01 00:05:14;;;;;;;;;;;;;;;25.27;19.81;98996.94;5096205;28;20372;-79
2024/02/01 00:07:40;;;;;;;;;;;;;;;25.36;19.99;98997.22;5094304;28;20010;-79
2024/02/01 00:10:06;;;;;;;;;;;;;;;25.22;19.92;99000.19;5094372;28;19921;-79
2024/02/01 00:12:32;;;;;;;;;;;;;;;25.54;19.99;98991.38;5103655;28;19926;-79
2024/02/01 00:14:58;;;;;;;;;;;;;;;25.75;19.38;98987.47;5097644;28;19924;-79
2024/02/01 00:17:24;;;;;;;;;;;;;;;25.05;20.32;98986.34;5075938;28;19916;-79
2024/02/01 00:19:51;;;;;;;;;;;;;;;24.96;20.36;98983.22;5097797;28;19962;-79
2024/02/01 00:22:17;;;;;;;;;;;;;;;25.10;19.96;98978.25;5106784;28;19920;-79
2024/02/01 00:24:43;;;;;;;;;;;;;;;24.99;20.01;98971.16;5113613;28;19926;-79
2024/02/01 00:27:11;;;;;;;;;;;;;;;25.02;20.16;98964.72;5107647;28;19943;-79
2024/02/01 00:29:37;;;;;;;;;;;;;;;25.22;20.07;98954.41;5113876;28;19916;-79
2024/02/01 00:32:04;;;;;;;;;;;;;;;25.45;19.95;98960.16;5098765;28;19915;-79
2024/02/01 00:34:32;;;;;;;;;;;;;;;25.33;19.98;98957.88;5113173;28;19920;-79
2024/02/01 00:36:59;;;;;;;;;;;;;;;25.26;20.08;98955.16;5104617;28;19916;-79
2024/02/01 00:39:25;;;;;;;;;;;;;;;25.03;20.67;98939.00;5107251;28;19927;-79
2024/02/01 00:41:51;;;;;;;;;;;;;;;24.91;20.58;98941.53;5110974;28;20352;-79
2024/02/01 00:44:17;;;;;;;;;;;;;;;24.74;20.70;98929.25;5079991;28;19925;-79
2024/02/01 00:46:43;;;;;;;;;;;;;;;24.96;20.57;98927.03;5088953;28;20361;-79
2024/02/01 00:49:09;;;;;;;;;;;;;;;25.02;20.70;98916.94;5081991;28;20355;-79
2024/02/01 00:51:35;;;;;;;;;;;;;;;25.29;20.25;98918.59;5082604;28;19924;-79
2024/02/01 00:54:01;;;;;;;;;;;;;;;25.16;20.42;98911.13;5080903;28;19920;-79
2024/02/01 00:56:27;;;;;;;;;;;;;;;25.31;20.27;98909.72;5080250;28;19924;-79
2024/02/01 00:58:53;;;;;;;;;;;;;;;25.30;20.18;98902.50;5077080;28;19955;-79
2024/02/01 01:01:19;;;;;;;;;;;;;;;24.99;20.66;98896.09;5072765;28;19925;-79
2024/02/01 01:03:45;;;;;;;;;;;;;;;25.10;20.52;98895.94;5075880;28;19920;-79
2024/02/01 01:06:11;;;;;;;;;;;;;;;24.76;20.63;98901.59;5084292;28;20282;-79
2024/02/01 01:08:37;;;;;;;;;;;;;;;24.88;20.82;98889.78;5086341;28;19920;-79
2024/02/01 01:11:04;;;;;;;;;;;;;;;25.05;20.57;98885.97;5093214;28;19916;-79
2024/02/01 01:13:30;;;;;;;;;;;;;;;25.21;20.16;98886.16;5084479;28;19932;-79
2024/02/01 01:15:56;;;;;;;;;;;;;;;25.33;20.45;98888.41;5075991;28;19921;-79
2024/02/01 01:18:22;;;;;;;;;;;;;;;25.32;20.42;98889.59;5077445;28;19925;-79
2024/02/01 01:20:48;;;;;;;;;;;;;;;25.40;20.10;98874.25;5080575;28;20301;-79
2024/02/01 01:23:14;;;;;;;;;;;;;;;25.64;19.81;98880.75;5085013;28;19932;-79
2024/02/01 01:25:40;;;;;;;;;;;;;;;25.76;19.81;98880.16;5078260;28;19920;-79
2024/02/01 01:28:06;;;;;;;;;;;;;;;25.71;19.83;98871.41;5086348;28;19916;-79
2024/02/01 01:30:32;;;;;;;;;;;;;;;25.83;19.81;98874.41;5081954;28;19956;-79
2024/02/01 01:32:58;;;;;;;;;;;;;;;25.93;19.84;98870.59;5091791;28;19920;-79
2024/02/01 01:35:24;;;;;;;;;;;;;;;25.80;19.73;98863.22;5092976;28;19923;-79
2024/02/01 01:37:50;;;;;;;;;;;;;;;25.89;19.80;98857.81;5080271;28;19916;-79
2024/02/01 01:40:16;;;;;;;;;;;;;;;25.87;19.78;98852.63;5073043;28;19917;-79
2024/02/01 01:42:43;;;;;;;;;;;;;;;26.04;19.69;98851.50;5082481;28;19920;-79
2024/02/01 01:45:09;;;;;;;;;;;;;;;26.02;19.61;98841.94;5096856;28;19989;-79
2024/02/01 01:47:35;;;;;;;;;;;;;;;26.07;19.41;98841.41;5093391;28;19917;-79
2024/02/01 01:50:01;;;;;;;;;;;;;;;25.82;19.75;98838.25;5092966;28;20396;-79
2024/02/01 01:52:28;;;;;;;;;;;;;;;25.65;20.03;98830.94;5096135;28;19931;-79
2024/02/01 01:54:58;;;;;;;;;;;;;;;25.37;20.18;98832.91;5107591;28;20368;-79
2024/02/01 01:57:25;;;;;;;;;;;;;;;25.46;20.04;98831.63;5110243;28;20369;-79
2024/02/01 01:59:52;;;;;;;;;;;;;;;25.51;19.81;98820.66;5113221;28;19911;-79
2024/02/01 02:02:18;;;;;;;;;;;;;;;25.63;19.79;98813.66;5111770;28;19969;-79
2024/02/01 02:04:44;;;;;;;;;;;;;;;25.41;19.80;98819.59;5112425;28;19915;-79
2024/02/01 02:07:10;;;;;;;;;;;;;;;25.27;19.97;98805.78;5101726;28;19920;-79
2024/02/01 02:09:37;;;;;;;;;;;;;;;25.26;19.67;98795.75;5103816;27;19916;-79
2024/02/01 02:12:04;;;;;;;;;;;;;;;25.32;19.74;98794.03;5101932;28;19924;-79
2024/02/01 02:14:30;;;;;;;;;;;;;;;25.31;19.61;98775.59;5100613;28;19935;-79
2024/02/01 02:16:56;;;;;;;;;;;;;;;25.41;19.67;98768.22;5108496;27;19920;-79
2024/02/01 02:19:22;;;;;;;;;;;;;;;25.48;19.39;98767.31;5089111;27;20369;-79
2024/02/01 02:21:52;;;;;;;;;;;;;;;25.02;20.00;98760.38;5121011;27;20011;-79
2024/02/01 02:24:18;;;;;;;;;;;;;;;24.93;19.88;98771.34;5096592;28;19920;-79
2024/02/01 02:26:45;;;;;;;;;;;;;;;24.62;20.16;98759.31;5132982;27;19915;-79
2024/02/01 02:29:15;;;;;;;;;;;;;;;24.13;20.98;98745.13;5137338;27;19915;-79
2024/02/01 02:31:45;;;;;;;;;;;;;;;24.33;20.69;98749.66;5137282;27;19915;-79
2024/02/01 02:34:11;;;;;;;;;;;;;;;24.39;20.32;98749.97;5107052;27;20404;-79
2024/02/01 02:36:37;;;;;;;;;;;;;;;24.53;20.31;98747.00;5113270;28;20394;-79
2024/02/01 02:39:03;;;;;;;;;;;;;;;24.81;20.13;98741.00;5120959;27;20258;-78
2024/02/01 02:41:29;;;;;;;;;;;;;;;24.93;19.92;98742.44;5096136;28;19920;-79
2024/02/01 02:43:56;;;;;;;;;;;;;;;25.12;19.68;98739.75;5109131;28;19968;-79
2024/02/01 02:46:25;;;;;;;;;;;;;;;25.29;19.46;98718.19;5109848;27;19919;-79
2024/02/01 02:48:51;;;;;;;;;;;;;;;25.06;19.64;98713.38;5111941;27;19965;-79
2024/02/01 02:51:17;;;;;;;;;;;;;;;25.21;19.36;98714.72;5096061;28;19919;-79
2024/02/01 02:53:43;;;;;;;;;;;;;;;25.21;19.41;98709.09;5112120;28;19928;-78
2024/02/01 02:56:09;;;;;;;;;;;;;;;25.22;19.31;98705.06;5086165;28;19946;-78
2024/02/01 02:58:36;;;;;;;;;;;;;;;25.35;19.38;98697.59;5111568;28;20339;-79
2024/02/01 03:01:05;;;;;;;;;;;;;;;25.30;19.42;98689.66;5112849;27;20456;-78
2024/02/01 03:03:32;;;;;;;;;;;;;;;25.23;19.13;98680.53;5115975;28;20397;-79
2024/02/01 03:05:59;;;;;;;;;;;;;;;25.01;19.48;98693.38;5115685;28;20331;-79
2024/02/01 03:08:25;;;;;;;;;;;;;;;25.14;19.23;98681.09;5116141;28;19922;-79
2024/02/01 03:10:51;;;;;;;;;;;;;;;25.05;19.61;98669.63;5106423;28;19920;-79
2024/02/01 03:13:17;;;;;;;;;;;;;;;24.86;19.34;98667.50;5095318;28;20003;-79
2024/02/01 03:15:43;;;;;;;;;;;;;;;24.71;19.69;98669.72;5095277;28;19921;-79
2024/02/01 03:18:10;;;;;;;;;;;;;;;24.62;19.74;98674.28;5099254;28;20060;-78
2024/02/01 03:20:36;;;;;;;;;;;;;;;24.76;19.43;98674.13;5095782;27;19920;-79
2024/02/01 03:23:05;;;;;;;;;;;;;;;24.95;19.29;98670.56;5104030;28;20431;-79
2024/02/01 03:25:32;;;;;;;;;;;;;;;24.95;19.25;98669.81;5115615;28;19915;-79
2024/02/01 03:28:03;;;;;;;;;;;;;;;24.91;19.69;98671.84;5102732;28;19927;-79
2024/02/01 03:30:33;;;;;;;;;;;;;;;24.86;19.16;98659.09;5098553;28;20412;-79
2024/02/01 03:33:03;;;;;;;;;;;;;;;24.98;19.01;98661.31;5099222;28;19916;-79
2024/02/01 03:35:31;;;;;;;;;;;;;;;24.88;19.33;98673.50;5094650;28;19916;-79
2024/02/01 03:37:58;;;;;;;;;;;;;;;24.48;20.08;98677.31;5097014;28;19916;-79
2024/02/01 03:40:24;;;;;;;;;;;;;;;24.45;19.83;98681.75;5094903;28;20276;-79
2024/02/01 03:42:50;;;;;;;;;;;;;;;24.58;19.72;98684.75;5094638;28;20293;-79
2024/02/01 03:45:16;;;;;;;;;;;;;;;24.52;19.84;98687.25;5095139;28;19920;-79
2024/02/01 03:47:45;;;;;;;;;;;;;;;24.53;19.44;98682.41;5096142;27;19920;-79
2024/02/01 03:50:12;;;;;;;;;;;;;;;24.43;19.75;98691.81;5098257;28;19920;-79
2024/02/01 03:52:39;;;;;;;;;;;;;;;24.54;19.72;98692.44;5099311;27;19927;-78
2024/02/01 03:55:16;;;;;;;;;;;;;;;24.52;19.53;98695.69;5097482;28;19920;-79
2024/02/01 03:57:42;;;;;;;;;;;;;;;24.45;20.29;98694.97;5104663;28;19920;-79
2024/02/01 04:00:24;;;;;;;;;;;;;;;24.46;19.55;98704.97;5114382;27;20020;-79
2024/02/01 04:02:54;;;;;;;;;;;;;;;24.20;19.52;98714.94;5103521;27;19926;-79
2024/02/01 04:05:20;;;;;;;;;;;;;;;24.19;19.72;98709.75;5094542;28;19924;-79
2024/02/01 04:07:46;;;;;;;;;;;;;;;24.43;19.28;98712.25;5095624;28;20384;-79
2024/02/01 04:10:12;;;;;;;;;;;;;;;24.24;19.30;98710.09;5097856;28;19920;-79
2024/02/01 04:12:38;;;;;;;;;;;;;;;24.24;19.03;98700.88;5097945;27;19920;-79
2024/02/01 04:15:05;;;;;;;;;;;;;;;24.27;18.99;98706.44;5097449;28;19963;-79
2024/02/01 04:17:31;;;;;;;;;;;;;;;23.91;19.46;98702.44;5106729;27;19982;-79
2024/02/01 04:19:57;;;;;;;;;;;;;;;24.08;19.52;98690.25;5101552;28;19941;-79
2024/02/01 04:22:25;;;;;;;;;;;;;;;23.80;20.03;98691.34;5106336;28;19920;-79
2024/02/01 04:24:51;;;;;;;;;;;;;;;23.73;19.94;98682.22;5112385;27;19920;-79
2024/02/01 04:27:18;;;;;;;;;;;;;;;23.92;19.55;98684.41;5098525;27;19955;-79
2024/02/01 04:29:44;;;;;;;;;;;;;;;23.95;19.24;98677.94;5083050;28;19926;-79
2024/02/01 04:32:10;;;;;;;;;;;;;;;24.03;19.48;98680.25;5100605;28;19924;-78
2024/02/01 04:34:38;;;;;;;;;;;;;;;23.84;19.69;98678.09;5110890;28;19927;-79
2024/02/01 04:37:07;;;;;;;;;;;;;;;23.99;19.66;98668.28;5101013;28;20007;-79
2024/02/01 04:39:33;;;;;;;;;;;;;;;24.03;19.28;98674.66;5109539;28;19919;-79
2024/02/01 04:42:14;;;;;;;;;;;;;;;23.92;19.32;98671.16;5108266;27;19934;-79
2024/02/01 04:44:41;;;;;;;;;;;;;;;23.98;19.75;98663.88;5103436;28;19973;-79
2024/02/01 04:47:07;;;;;;;;;;;;;;;24.11;19.25;98657.75;5098638;28;20394;-79
2024/02/01 04:49:33;;;;;;;;;;;;;;;24.07;19.71;98654.19;5113637;28;19920;-79
2024/02/01 04:51:59;;;;;;;;;;;;;;;24.11;19.41;98646.53;5106524;28;20046;-79
2024/02/01 04:54:27;;;;;;;;;;;;;;;23.77;19.52;98646.50;5098225;28;19970;-79
2024/02/01 04:56:54;;;;;;;;;;;;;;;23.51;19.94;98641.59;5101102;28;20046;-79
2024/02/01 04:59:20;;;;;;;;;;;;;;;23.40;20.04;98641.72;5117788;27;19926;-79
2024/02/01 05:01:46;;;;;;;;;;;;;;;23.49;20.26;98638.41;5092375;28;20018;-78
2024/02/01 05:04:15;;;;;;;;;;;;;;;23.32;20.38;98643.75;5099713;28;19919;-79
2024/02/01 05:06:42;;;;;;;;;;;;;;;23.17;20.67;98645.13;5099323;27;19961;-79
2024/02/01 05:09:23;;;;;;;;;;;;;;;23.54;20.41;98647.19;5105684;28;19924;-79
2024/02/01 05:11:50;;;;;;;;;;;;;;;24.05;19.97;98641.38;5101397;28;19992;-78
2024/02/01 05:14:16;;;;;;;;;;;;;;;24.31;19.65;98650.28;5094674;28;20412;-79
2024/02/01 05:16:42;;;;;;;;;;;;;;;24.34;19.69;98650.19;5094998;28;19916;-78
2024/02/01 05:19:08;;;;;;;;;;;;;;;24.51;19.48;98651.97;5102932;28;19958;-79
2024/02/01 05:21:34;;;;;;;;;;;;;;;24.61;19.47;98653.03;5102323;28;20384;-79
2024/02/01 05:24:01;;;;;;;;;;;;;;;24.56;19.71;98650.69;5104650;28;19927;-80
2024/02/01 05:26:27;;;;;;;;;;;;;;;24.67;19.73;98648.53;5098485;28;19920;-80
2024/02/01 05:28:53;;;;;;;;;;;;;;;24.76;19.90;98654.44;5098327;28;19920;-79
2024/02/01 05:31:19;;;;;;;;;;;;;;;24.73;19.81;98658.06;5104513;28;20073;-80
2024/02/01 05:33:45;;;;;;;;;;;;;;;24.36;20.36;98649.81;5102870;28;19928;-80
2024/02/01 05:36:11;;;;;;;;;;;;;;;24.56;20.30;98651.50;5100435;28;19920;-79
2024/02/01 05:38:38;;;;;;;;;;;;;;;24.66;20.09;98650.56;5104684;28;20239;-79
2024/02/01 05:41:13;;;;;;;;;;;;;;;24.71;20.38;98652.84;5106515;28;19919;-79
2024/02/01 05:43:39;;;;;;;;;;;;;;;24.96;20.16;98649.69;5091082;28;19928;-79
2024/02/01 05:46:14;;;;;;;;;;;;;;;25.32;19.65;98636.59;5084950;28;19920;-79
2024/02/01 05:48:43;;;;;;;;;;;;;;;25.62;19.32;98640.53;5081107;28;19920;-79
2024/02/01 05:51:09;;;;;;;;;;;;;;;25.63;19.32;98640.09;5082640;28;20141;-79
2024/02/01 05:53:36;;;;;;;;;;;;;;;25.72;19.44;98636.72;5089466;28;19947;-79
2024/02/01 05:56:03;;;;;;;;;;;;;;;25.84;19.33;98634.03;5078924;28;20016;-79
2024/02/01 05:58:29;;;;;;;;;;;;;;;25.89;19.09;98636.34;5078572;28;19943;-80
2024/02/01 06:00:55;;;;;;;;;;;;;;;25.89;19.22;98633.53;5065917;28;19921;-80
2024/02/01 06:03:21;;;;;;;;;;;;;;;25.69;19.25;98631.94;5082059;28;19920;-80
2024/02/01 06:05:48;;;;;;;;;;;;;;;25.69;19.23;98638.38;5080826;28;19920;-79
2024/02/01 06:08:15;;;;;;;;;;;;;;;25.78;19.09;98635.78;5083732;28;19956;-79
2024/02/01 06:10:41;;;;;;;;;;;;;;;25.76;19.09;98640.25;5082546;28;20669;-80
2024/02/01 06:13:07;;;;;;;;;;;;;;;25.82;19.01;98632.88;5082323;28;20007;-79
2024/02/01 06:15:33;;;;;;;;;;;;;;;25.74;19.02;98635.03;5081357;28;19928;-78
2024/02/01 06:17:59;;;;;;;;;;;;;;;25.67;19.15;98629.56;5090370;28;20008;-78
2024/02/01 06:20:25;;;;;;;;;;;;;;;25.83;19.09;98634.47;5090618;28;20293;-78
2024/02/01 06:22:51;;;;;;;;;;;;;;;25.75;18.96;98630.22;5095245;28;20328;-78
2024/02/01 06:25:18;;;;;;;;;;;;;;;25.58;19.10;98643.38;5094827;28;20435;-78
2024/02/01 06:27:44;;;;;;;;;;;;;;;25.55;19.00;98638.66;5094516;28;20292;-79
2024/02/01 06:30:10;;;;;;;;;;;;;;;25.72;18.75;98640.31;5095078;28;20014;-78
2024/02/01 06:32:36;;;;;;;;;;;;;;;25.67;19.05;98635.19;5095412;28;19916;-78
2024/02/01 06:35:12;;;;;;;;;;;;;;;25.63;19.25;98644.91;5091011;28;19934;-78
2024/02/01 06:37:42;;;;;;;;;;;;;;;25.51;18.97;98639.94;5092023;28;19916;-78
2024/02/01 06:43:10;;;;;;;;;;;;;;;25.40;19.44;98638.09;5105777;28;20498;-79
2024/02/01 06:45:47;;;;;;;;;;;;;;;25.41;19.56;98634.03;5114923;28;20455;-79
2024/02/01 06:48:13;;;;;;;;;;;;;;;25.63;19.24;98628.84;5113759;28;19916;-79
2024/02/01 06:50:54;;;;;;;;;;;;;;;25.86;18.86;98642.84;5114616;28;19963;-79
2024/02/01 06:53:23;;;;;;;;;;;;;;;25.73;19.00;98630.66;5110241;28;19924;-80
2024/02/01 06:56:01;;;;;;;;;;;;;;;25.77;19.31;98622.13;5109054;28;19920;-80
2024/02/01 06:58:47;;;;;;;;;;;;;;;26.01;18.83;98618.81;5114704;28;19966;-80
2024/02/01 07:01:38;;;;;;;;;;;;;;;25.77;19.31;98608.06;5109486;28;20281;-79
2024/02/01 07:04:20;;;;;;;;;;;;;;;25.96;19.15;98599.63;5112490;28;19938;-79
2024/02/01 07:07:17;;;;;;;;;;;;;;;25.57;19.39;98601.66;5114821;28;20265;-80
2024/02/01 07:09:47;;;;;;;;;;;;;;;25.62;19.68;98599.13;5109593;28;19916;-79
2024/02/01 07:12:39;;;;;;;;;;;;;;;25.83;19.33;98581.03;5113478;28;19923;-79
2024/02/01 07:17:47;;;;;;;;;;;;;;;26.25;19.19;98579.31;5114328;28;20281;-79
2024/02/01 07:20:23;;;;;;;;;;;;;;;26.17;19.32;98580.72;5111181;28;19912;-79
2024/02/01 07:23:00;;;;;;;;;;;;;;;26.20;19.34;98577.81;5114107;28;19920;-79
2024/02/01 07:25:47;;;;;;;;;;;;;;;26.20;19.40;98571.41;5113614;28;19919;-79
2024/02/01 07:58:25;;;;;;;;;;;;;;;26.00;20.51;98560.13;5112665;28;19922;-80
2024/02/01 08:00:54;;;;;;;;;;;;;;;25.15;21.34;98561.88;5112358;28;19998;-79
2024/02/01 08:08:37;;;;;;;;;;;;;;;25.27;21.36;98564.06;5113782;28;20029;-78
2024/02/01 08:11:04;;;;;;;;;;;;;;;25.97;20.84;98561.84;5097482;28;20014;-79
2024/02/01 08:13:30;;;;;;;;;;;;;;;25.64;20.70;98559.31;5094190;28;19928;-78
2024/02/01 08:15:57;;;;;;;;;;;;;;;26.06;20.65;98555.59;5094696;28;19916;-78
2024/02/01 08:18:26;;;;;;;;;;;;;;;26.53;20.53;98562.56;5112061;28;19919;-78
2024/02/01 08:20:52;;;;;;;;;;;;;;;26.07;21.00;98552.34;5114533;28;19918;-78
2024/02/01 08:23:19;;;;;;;;;;;;;;;26.00;20.85;98549.69;5114431;28;20308;-78
2024/02/01 08:25:45;;;;;;;;;;;;;;;25.97;20.55;98541.34;5114202;28;20032;-78
2024/02/01 08:28:12;;;;;;;;;;;;;;;26.60;20.67;98545.50;5114612;28;19912;-78
2024/02/01 08:30:38;;;;;;;;;;;;;;;25.88;21.06;98543.94;5114395;28;19915;-79
2024/02/01 08:33:04;;;;;;;;;;;;;;;25.88;20.84;98544.72;5095631;28;20471;-78
2024/02/01 08:35:33;;;;;;;;;;;;;;;26.22;20.60;98547.22;5107779;28;19924;-79
2024/02/01 08:38:03;;;;;;;;;;;;;;;26.42;20.61;98552.78;5114214;28;19927;-79
2024/02/01 08:40:30;;;;;;;;;;;;;;;26.82;19.77;98548.56;5103970;28;20319;-79
2024/02/01 08:42:59;;;;;;;;;;;;;;;26.77;19.97;98554.75;5100818;28;19973;-79
2024/02/01 08:45:27;;;;;;;;;;;;;;;26.93;20.00;98553.94;5093486;28;19968;-79
2024/02/01 08:47:54;;;;;;;;;;;;;;;26.12;20.40;98558.69;5081791;28;19916;-79
2024/02/01 08:50:22;;;;;;;;;;;;;;;25.21;21.19;98554.50;5110616;28;20335;-79
2024/02/01 08:52:48;;;;;;;;;;;;;;;25.16;21.32;98557.81;5102434;28;20007;-79
2024/02/01 08:55:15;;;;;;;;;;;;;;;24.75;21.98;98568.56;5093511;28;19916;-80
2024/02/01 08:57:42;;;;;;;;;;;;;;;24.55;22.01;98574.09;5093460;28;20296;-79
2024/02/01 09:00:21;;;;;;;;;;;;;;;24.65;21.83;98575.94;5097708;28;19920;-80
2024/02/01 09:02:48;;;;;;;;;;;;;;;25.22;21.70;98572.97;5113607;28;19916;-80
2024/02/01 09:05:19;;;;;;;;;;;;;;;25.14;22.80;98567.91;5113734;28;19962;-79
2024/02/01 09:07:45;;;;;;;;;;;;;;;25.59;21.36;98566.25;5108383;28;19919;-79
2024/02/01 09:10:11;;;;;;;;;;;;;;;25.59;21.15;98571.06;5077329;28;19920;-79
2024/02/01 09:12:37;;;;;;;;;;;;;;;25.27;22.10;98572.47;5096665;28;19927;-80
2024/02/01 09:15:05;;;;;;;;;;;;;;;25.92;21.05;98567.16;5093535;28;19924;-79
2024/02/01 09:17:31;;;;;;;;;;;;;;;26.22;21.09;98572.53;5098679;28;19982;-79
2024/02/01 09:19:57;;;;;;;;;;;;;;;25.97;20.86;98573.09;5113568;28;19972;-79
2024/02/01 09:22:23;;;;;;;;;;;;;;;26.42;20.59;98570.47;5106657;28;19973;-79
2024/02/01 09:24:49;;;;;;;;;;;;;;;26.65;20.16;98570.28;5082250;28;19923;-79
2024/02/01 09:27:15;;;;;;;;;;;;;;;26.64;20.19;98565.13;5110717;28;19920;-80
2024/02/01 09:29:41;;;;;;;;;;;;;;;26.84;20.67;98571.47;5113366;28;19919;-79
2024/02/01 09:32:07;;;;;;;;;;;;;;;25.44;20.95;98576.19;5105268;28;19971;-79
2024/02/01 09:34:33;;;;;;;;;;;;;;;25.47;21.74;98580.16;5107545;28;20359;-79
2024/02/01 09:36:59;;;;;;;;;;;;;;;24.50;25.01;98580.22;5103265;28;19923;-79
2024/02/01 09:39:25;;;;;;;;;;;;;;;23.79;24.67;98580.41;5111743;28;19958;-79
2024/02/01 09:41:53;;;;;;;;;;;;;;;23.93;23.11;98580.22;5093699;28;20073;-80
2024/02/01 09:44:19;;;;;;;;;;;;;;;23.87;22.98;98581.91;5099693;28;20015;-79
2024/02/01 09:46:46;;;;;;;;;;;;;;;23.79;23.96;98583.19;5096970;28;19920;-80
2024/02/01 09:49:12;;;;;;;;;;;;;;;24.03;23.40;98584.09;5092934;28;19917;-79
2024/02/01 09:51:38;;;;;;;;;;;;;;;23.20;24.51;98579.03;5092382;28;19916;-79
2024/02/01 09:54:11;;;;;;;;;;;;;;;24.33;23.15;98581.28;5103015;28;20434;-80
2024/02/01 09:56:38;;;;;;;;;;;;;;;23.61;26.61;98571.41;5093100;28;19963;-80
2024/02/01 09:59:04;;;;;;;;;;;;;;;24.41;23.43;98579.94;5079882;28;20011;-80
2024/02/01 10:01:30;;;;;;;;;;;;;;;23.53;24.32;98580.31;5093568;28;19923;-79
2024/02/01 10:03:56;;;;;;;;;;;;;;;22.71;25.46;98577.50;5093749;28;19920;-79
2024/02/01 10:06:23;;;;;;;;;;;;;;;22.47;28.00;98570.91;5100907;28;19920;-79
2024/02/01 10:08:53;;;;;;;;;;;;;;;23.28;24.89;98567.38;5094445;28;20007;-80
2024/02/01 10:11:19;;;;;;;;;;;;;;;23.16;24.73;98567.09;5107966;28;19978;-80
2024/02/01 10:13:45;;;;;;;;;;;;;;;23.34;28.74;98570.47;5111558;28;19916;-79
2024/02/01 10:16:16;;;;;;;;;;;;;;;22.38;28.46;98558.56;5101464;28;19922;-79
2024/02/01 10:18:43;;;;;;;;;;;;;;;21.22;27.90;98559.94;5110550;28;20288;-79
2024/02/01 10:21:21;;;;;;;;;;;;;;;21.93;27.07;98568.84;5112845;28;20017;-79
2024/02/01 10:23:48;;;;;;;;;;;;;;;20.63;29.59;98570.75;5116689;28;19920;-79
2024/02/01 10:26:24;;;;;;;;;;;;;;;21.00;29.48;98581.50;5112509;28;19916;-79
2024/02/01 10:28:50;;;;;;;;;;;;;;;19.68;34.63;98594.84;5096578;28;20274;-78
2024/02/01 10:31:17;;;;;;;;;;;;;;;18.36;34.93;98592.34;5098370;28;20419;-79
2024/02/01 10:33:45;;;;;;;;;;;;;;;18.52;33.85;98595.69;5096927;28;19922;-79
2024/02/01 10:36:12;;;;;;;;;;;;;;;18.22;35.60;98592.19;5096346;28;20281;-79
2024/02/01 10:38:44;;;;;;;;;;;;;;;19.55;32.04;98586.03;5096596;28;19939;-79
2024/02/01 10:41:15;;;;;;;;;;;;;;;18.02;37.28;98598.34;5096076;28;19959;-79
2024/02/01 10:43:42;;;;;;;;;;;;;;;18.12;36.86;98590.09;5095916;28;19959;-80
2024/02/01 10:46:09;;;;;;;;;;;;;;;18.37;34.91;98609.78;5096106;28;19916;-80
2024/02/01 10:48:47;;;;;;;;;;;;;;;19.99;31.90;98608.09;5106591;28;19970;-80
2024/02/01 10:51:15;;;;;;;;;;;;;;;19.22;33.50;98602.94;5113077;28;20261;-79
2024/02/01 10:53:45;;;;;;;;;;;;;;;19.15;33.18;98612.06;5116406;28;19916;-79
2024/02/01 10:56:15;;;;;;;;;;;;;;;19.72;32.83;98598.44;5116214;28;20003;-80
2024/02/01 10:58:41;;;;;;;;;;;;;;;20.74;31.83;98600.66;5116289;28;19920;-79
2024/02/01 11:01:07;;;;;;;;;;;;;;;19.73;32.98;98589.69;5116071;28;20011;-79
2024/02/01 11:03:33;;;;;;;;;;;;;;;19.81;33.17;98604.44;5093844;28;20401;-78
2024/02/01 11:05:59;;;;;;;;;;;;;;;20.00;33.16;98604.09;5095786;28;20389;-79
2024/02/01 11:08:30;;;;;;;;;;;;;;;21.00;30.99;98595.47;5096463;28;19916;-79
2024/02/01 11:11:00;;;;;;;;;;;;;;;21.64;30.82;98582.13;5095361;28;20369;-78
2024/02/01 11:13:28;;;;;;;;;;;;;;;20.95;31.71;98584.69;5095556;28;19924;-79
2024/02/01 11:15:54;;;;;;;;;;;;;;;20.68;32.72;98586.28;5095341;28;19939;-79
2024/02/01 11:18:20;;;;;;;;;;;;;;;20.66;31.52;98583.09;5095035;28;20400;-78
2024/02/01 11:20:56;;;;;;;;;;;;;;;21.14;30.84;98589.09;5095388;28;20361;-79
2024/02/01 11:23:22;;;;;;;;;;;;;;;22.20;28.89;98583.84;5095868;28;20058;-79
2024/02/01 11:25:49;;;;;;;;;;;;;;;20.79;31.16;98586.31;5095760;28;19912;-79
2024/02/01 11:28:28;;;;;;;;;;;;;;;19.92;34.02;98597.72;5095521;28;19916;-79
2024/02/01 11:30:54;;;;;;;;;;;;;;;21.60;29.67;98591.72;5106885;28;20296;-78
2024/02/01 11:33:25;;;;;;;;;;;;;;;21.49;29.52;98582.59;5102386;28;20384;-79
2024/02/01 11:35:55;;;;;;;;;;;;;;;20.88;30.71;98589.47;5113351;28;19920;-79
2024/02/01 11:38:21;;;;;;;;;;;;;;;21.20;29.94;98587.47;5122291;27;19915;-78
2024/02/01 11:40:47;;;;;;;;;;;;;;;21.37;29.73;98588.63;5110870;27;20373;-78
2024/02/01 11:43:13;;;;;;;;;;;;;;;22.20;28.35;98583.84;5100166;27;20399;-79
2024/02/01 11:45:40;;;;;;;;;;;;;;;21.14;30.09;98584.25;5115054;28;20132;-78
2024/02/01 11:48:06;;;;;;;;;;;;;;;20.94;30.70;98583.09;5111397;27;19919;-79
2024/02/01 11:50:32;;;;;;;;;;;;;;;19.76;33.07;98590.91;5111416;28;20007;-79
2024/02/01 11:53:05;;;;;;;;;;;;;;;19.73;34.70;98594.47;5094796;27;19920;-78
2024/02/01 11:55:34;;;;;;;;;;;;;;;21.33;30.11;98580.25;5094847;28;20285;-79
2024/02/01 11:58:01;;;;;;;;;;;;;;;21.86;29.38;98582.88;5101399;28;20009;-79
2024/02/01 12:00:28;;;;;;;;;;;;;;;21.58;29.75;98583.75;5097052;28;19916;-79
2024/02/01 12:02:54;;;;;;;;;;;;;;;21.03;30.64;98583.47;5097293;28;19920;-79
2024/02/01 12:05:20;;;;;;;;;;;;;;;22.29;28.40;98570.22;5105195;28;19973;-79
2024/02/01 12:07:47;;;;;;;;;;;;;;;20.54;31.16;98575.94;5102366;27;19916;-79
2024/02/01 12:10:16;;;;;;;;;;;;;;;20.98;30.27;98572.69;5110190;27;20377;-80
2024/02/01 12:12:44;;;;;;;;;;;;;;;22.26;28.57;98573.03;5109645;28;19919;-79
2024/02/01 12:15:11;;;;;;;;;;;;;;;22.97;27.50;98573.28;5103226;28;20658;-80
2024/02/01 12:17:48;;;;;;;;;;;;;;;23.69;26.66;98569.28;5095955;28;19920;-80
2024/02/01 12:20:15;;;;;;;;;;;;;;;23.03;27.38;98566.84;5107314;28;19920;-80
2024/02/01 12:22:45;;;;;;;;;;;;;;;23.78;26.55;98564.00;5099628;27;19920;-79
2024/02/01 12:25:12;;;;;;;;;;;;;;;24.20;25.74;98566.22;5105535;27;19942;-79
2024/02/01 12:27:45;;;;;;;;;;;;;;;23.61;26.35;98557.41;5108040;28;19965;-80
2024/02/01 12:30:14;;;;;;;;;;;;;;;22.95;27.52;98559.69;5112942;28;19969;-80
2024/02/01 12:32:46;;;;;;;;;;;;;;;22.03;29.35;98554.03;5108418;28;19981;-80
2024/02/01 12:35:13;;;;;;;;;;;;;;;21.55;29.12;98547.44;5099075;28;20019;-80
2024/02/01 12:37:43;;;;;;;;;;;;;;;21.53;29.28;98550.66;5099814;28;19919;-80
2024/02/01 12:40:12;;;;;;;;;;;;;;;21.62;29.40;98550.19;5108081;28;19942;-80
2024/02/01 12:42:40;;;;;;;;;;;;;;;21.99;29.16;98544.84;5103358;27;20019;-80
2024/02/01 12:45:08;;;;;;;;;;;;;;;20.88;30.69;98545.63;5097686;28;19928;-78
2024/02/01 12:47:37;;;;;;;;;;;;;;;22.09;28.76;98548.78;5107521;28;19920;-79
2024/02/01 12:50:04;;;;;;;;;;;;;;;22.08;28.42;98544.41;5099531;28;19920;-78
2024/02/01 12:52:31;;;;;;;;;;;;;;;21.47;29.63;98543.88;5093708;28;19963;-78
2024/02/01 12:55:00;;;;;;;;;;;;;;;22.61;28.05;98545.59;5093665;28;19916;-79
2024/02/01 12:57:26;;;;;;;;;;;;;;;23.23;27.04;98556.59;5093904;28;19916;-79
2024/02/01 12:59:53;;;;;;;;;;;;;;;22.97;27.45;98554.47;5092956;28;19923;-79
2024/02/01 13:02:19;;;;;;;;;;;;;;;23.26;27.10;98549.38;5093948;28;20270;-79
2024/02/01 13:04:46;;;;;;;;;;;;;;;23.46;26.83;98550.38;5099292;28;19916;-79
2024/02/01 13:07:12;;;;;;;;;;;;;;;23.70;26.09;98543.66;5112961;28;20010;-79
2024/02/01 13:09:41;;;;;;;;;;;;;;;23.30;26.77;98555.72;5113477;28;19916;-80
2024/02/01 13:12:21;;;;;;;;;;;;;;;21.15;29.76;98549.56;5113702;28;19923;-79
2024/02/01 13:15:00;;;;;;;;;;;;;;;22.74;28.00;98553.50;5100882;28;20507;-79
2024/02/01 13:17:30;;;;;;;;;;;;;;;23.27;26.71;98548.94;5101226;28;20380;-80
2024/02/01 13:19:56;;;;;;;;;;;;;;;23.46;26.47;98552.38;5113725;28;20010;-80
2024/02/01 13:22:25;;;;;;;;;;;;;;;24.51;25.46;98542.50;5108428;28;19920;-80
2024/02/01 13:24:52;;;;;;;;;;;;;;;23.78;26.35;98545.13;5093932;28;19924;-80
2024/02/01 13:27:18;;;;;;;;;;;;;;;22.59;27.72;98547.22;5093329;28;19922;-80
2024/02/01 13:29:44;;;;;;;;;;;;;;;21.58;30.33;98552.22;5092775;28;19916;-80
2024/02/01 13:32:12;;;;;;;;;;;;;;;21.16;30.25;98555.97;5075162;28;20010;-80